sensor_id;sensor_type;location;lat;lon;timestamp;temperature;humidity
64817;DHT22;53289;45.602;11.904;2022-08-19T00:02:13;20.40;85.50
64817;DHT22;53289;45.602;11.904;2022-08-19T00:04:39;20.50;85.40
64817;DHT22;53289;45.602;11.904;2022-08-19T00:07:06;20.40;85.20
64817;DHT22;53289;45.602;11.904;2022-08-19T00:09:32;20.50;84.80
64817;DHT22;53289;45.602;11.904;2022-08-19T00:11:59;20.50;84.70
64817;DHT22;53289;45.602;11.904;2022-08-19T00:14:26;20.50;84.70
64817;DHT22;53289;45.602;11.904;2022-08-19T00:16:53;20.50;85.00
64817;DHT22;53289;45.602;11.904;2022-08-19T00:19:20;20.50;84.90
64817;DHT22;53289;45.602;11.904;2022-08-19T00:21:46;20.50;85.10
64817;DHT22;53289;45.602;11.904;2022-08-19T00:24:14;20.50;84.90
64817;DHT22;53289;45.602;11.904;2022-08-19T00:26:43;20.50;84.80
64817;DHT22;53289;45.602;11.904;2022-08-19T00:29:13;20.50;84.90
64817;DHT22;53289;45.602;11.904;2022-08-19T00:31:40;20.50;85.20
64817;DHT22;53289;45.602;11.904;2022-08-19T00:34:08;20.40;85.70
64817;DHT22;53289;45.602;11.904;2022-08-19T00:36:35;20.50;85.90
64817;DHT22;53289;45.602;11.904;2022-08-19T00:39:01;20.40;86.50
64817;DHT22;53289;45.602;11.904;2022-08-19T00:41:28;20.30;86.60
64817;DHT22;53289;45.602;11.904;2022-08-19T00:44:03;20.30;86.60
64817;DHT22;53289;45.602;11.904;2022-08-19T00:46:31;20.30;86.50
64817;DHT22;53289;45.602;11.904;2022-08-19T00:48:59;20.30;86.60
64817;DHT22;53289;45.602;11.904;2022-08-19T00:51:30;20.20;87.00
64817;DHT22;53289;45.602;11.904;2022-08-19T00:53:59;20.30;87.00
64817;DHT22;53289;45.602;11.904;2022-08-19T00:56:27;20.20;87.60
64817;DHT22;53289;45.602;11.904;2022-08-19T00:58:55;20.00;87.40
64817;DHT22;53289;45.602;11.904;2022-08-19T01:01:22;20.00;87.80
64817;DHT22;53289;45.602;11.904;2022-08-19T01:03:48;19.90;89.30
64817;DHT22;53289;45.602;11.904;2022-08-19T01:06:14;19.80;90.40
64817;DHT22;53289;45.602;11.904;2022-08-19T01:08:40;19.80;90.50
64817;DHT22;53289;45.602;11.904;2022-08-19T01:11:07;19.70;90.40
64817;DHT22;53289;45.602;11.904;2022-08-19T01:13:34;19.60;90.40
64817;DHT22;53289;45.602;11.904;2022-08-19T01:16:08;19.60;90.60
64817;DHT22;53289;45.602;11.904;2022-08-19T01:18:40;19.60;90.80
64817;DHT22;53289;45.602;11.904;2022-08-19T01:23:48;19.60;91.50
64817;DHT22;53289;45.602;11.904;2022-08-19T01:26:18;19.50;91.60
64817;DHT22;53289;45.602;11.904;2022-08-19T01:28:46;19.50;91.70
64817;DHT22;53289;45.602;11.904;2022-08-19T01:31:16;19.50;91.80
64817;DHT22;53289;45.602;11.904;2022-08-19T01:33:44;19.40;91.80
64817;DHT22;53289;45.602;11.904;2022-08-19T01:36:26;19.40;91.70
64817;DHT22;53289;45.602;11.904;2022-08-19T01:38:53;19.40;91.80
64817;DHT22;53289;45.602;11.904;2022-08-19T01:41:19;19.40;92.00
64817;DHT22;53289;45.602;11.904;2022-08-19T01:43:46;19.40;92.10
64817;DHT22;53289;45.602;11.904;2022-08-19T01:46:12;19.40;92.20
64817;DHT22;53289;45.602;11.904;2022-08-19T01:48:40;19.40;92.20
64817;DHT22;53289;45.602;11.904;2022-08-19T01:51:07;19.40;92.30
64817;DHT22;53289;45.602;11.904;2022-08-19T01:53:34;19.40;92.30
64817;DHT22;53289;45.602;11.904;2022-08-19T01:56:01;19.40;92.30
64817;DHT22;53289;45.602;11.904;2022-08-19T01:58:34;19.40;92.30
64817;DHT22;53289;45.602;11.904;2022-08-19T02:01:03;19.40;92.30
64817;DHT22;53289;45.602;11.904;2022-08-19T02:03:30;19.40;92.30
64817;DHT22;53289;45.602;11.904;2022-08-19T02:06:01;19.40;92.30
64817;DHT22;53289;45.602;11.904;2022-08-19T02:08:29;19.40;92.20
64817;DHT22;53289;45.602;11.904;2022-08-19T02:10:56;19.40;92.30
64817;DHT22;53289;45.602;11.904;2022-08-19T02:13:23;19.40;92.20
64817;DHT22;53289;45.602;11.904;2022-08-19T02:15:49;19.50;92.00
64817;DHT22;53289;45.602;11.904;2022-08-19T02:18:15;19.50;91.90
64817;DHT22;53289;45.602;11.904;2022-08-19T02:20:43;19.50;91.90
64817;DHT22;53289;45.602;11.904;2022-08-19T02:23:11;19.50;91.80
64817;DHT22;53289;45.602;11.904;2022-08-19T02:25:38;19.50;91.70
64817;DHT22;53289;45.602;11.904;2022-08-19T02:28:04;19.60;91.30
64817;DHT22;53289;45.602;11.904;2022-08-19T02:30:31;19.60;91.50
64817;DHT22;53289;45.602;11.904;2022-08-19T02:32:57;19.50;91.50
64817;DHT22;53289;45.602;11.904;2022-08-19T02:35:24;19.50;91.40
64817;DHT22;53289;45.602;11.904;2022-08-19T02:37:50;19.40;91.30
64817;DHT22;53289;45.602;11.904;2022-08-19T02:40:35;19.40;91.30
64817;DHT22;53289;45.602;11.904;2022-08-19T02:43:03;19.40;91.10
64817;DHT22;53289;45.602;11.904;2022-08-19T02:45:34;19.40;91.20
64817;DHT22;53289;45.602;11.904;2022-08-19T02:48:00;19.30;90.70
64817;DHT22;53289;45.602;11.904;2022-08-19T02:50:27;19.30;90.50
64817;DHT22;53289;45.602;11.904;2022-08-19T02:52:53;19.30;91.00
64817;DHT22;53289;45.602;11.904;2022-08-19T02:55:19;19.30;90.90
64817;DHT22;53289;45.602;11.904;2022-08-19T02:57:47;19.30;91.00
64817;DHT22;53289;45.602;11.904;2022-08-19T03:00:13;19.30;91.00
64817;DHT22;53289;45.602;11.904;2022-08-19T03:02:40;19.20;91.10
64817;DHT22;53289;45.602;11.904;2022-08-19T03:05:08;19.20;91.00
64817;DHT22;53289;45.602;11.904;2022-08-19T03:07:41;19.20;91.00
64817;DHT22;53289;45.602;11.904;2022-08-19T03:10:07;19.20;90.60
64817;DHT22;53289;45.602;11.904;2022-08-19T03:12:37;19.20;90.60
64817;DHT22;53289;45.602;11.904;2022-08-19T03:15:05;19.20;90.50
64817;DHT22;53289;45.602;11.904;2022-08-19T03:17:31;19.30;90.30
64817;DHT22;53289;45.602;11.904;2022-08-19T03:19:58;19.30;90.10
64817;DHT22;53289;45.602;11.904;2022-08-19T03:22:24;19.30;90.10
64817;DHT22;53289;45.602;11.904;2022-08-19T03:24:51;19.30;90.10
64817;DHT22;53289;45.602;11.904;2022-08-19T03:27:17;19.30;89.90
64817;DHT22;53289;45.602;11.904;2022-08-19T03:29:43;19.30;89.80
64817;DHT22;53289;45.602;11.904;2022-08-19T03:32:11;19.30;89.70
64817;DHT22;53289;45.602;11.904;2022-08-19T03:34:38;19.30;89.70
64817;DHT22;53289;45.602;11.904;2022-08-19T03:37:07;19.30;89.80
64817;DHT22;53289;45.602;11.904;2022-08-19T03:39:36;19.20;89.80
64817;DHT22;53289;45.602;11.904;2022-08-19T03:42:02;19.20;89.70
64817;DHT22;53289;45.602;11.904;2022-08-19T03:44:30;19.20;89.70
64817;DHT22;53289;45.602;11.904;2022-08-19T03:46:59;19.10;89.60
64817;DHT22;53289;45.602;11.904;2022-08-19T03:49:28;19.10;89.50
64817;DHT22;53289;45.602;11.904;2022-08-19T03:51:57;19.20;89.40
64817;DHT22;53289;45.602;11.904;2022-08-19T03:54:27;19.10;89.00
64817;DHT22;53289;45.602;11.904;2022-08-19T03:56:54;19.00;88.90
64817;DHT22;53289;45.602;11.904;2022-08-19T03:59:28;19.00;88.90
64817;DHT22;53289;45.602;11.904;2022-08-19T04:01:56;18.90;89.20
64817;DHT22;53289;45.602;11.904;2022-08-19T04:04:24;18.90;89.30
64817;DHT22;53289;45.602;11.904;2022-08-19T04:06:50;18.90;89.10
64817;DHT22;53289;45.602;11.904;2022-08-19T04:09:17;18.90;89.00
64817;DHT22;53289;45.602;11.904;2022-08-19T04:11:48;18.90;88.90
64817;DHT22;53289;45.602;11.904;2022-08-19T04:14:17;18.90;88.80
64817;DHT22;53289;45.602;11.904;2022-08-19T04:16:45;18.80;88.80
64817;DHT22;53289;45.602;11.904;2022-08-19T04:19:13;18.70;88.90
64817;DHT22;53289;45.602;11.904;2022-08-19T04:21:39;18.70;88.90
64817;DHT22;53289;45.602;11.904;2022-08-19T04:24:06;18.70;88.90
64817;DHT22;53289;45.602;11.904;2022-08-19T04:26:35;18.70;89.00
64817;DHT22;53289;45.602;11.904;2022-08-19T04:29:07;18.70;88.90
64817;DHT22;53289;45.602;11.904;2022-08-19T04:31:34;18.70;88.90
64817;DHT22;53289;45.602;11.904;2022-08-19T04:34:03;18.60;88.90
64817;DHT22;53289;45.602;11.904;2022-08-19T04:36:32;18.60;88.90
64817;DHT22;53289;45.602;11.904;2022-08-19T04:39:04;18.60;88.90
64817;DHT22;53289;45.602;11.904;2022-08-19T04:41:30;18.70;88.90
64817;DHT22;53289;45.602;11.904;2022-08-19T04:44:15;18.70;88.90
64817;DHT22;53289;45.602;11.904;2022-08-19T04:46:44;18.70;89.00
64817;DHT22;53289;45.602;11.904;2022-08-19T04:49:11;18.80;89.10
64817;DHT22;53289;45.602;11.904;2022-08-19T04:51:39;18.80;89.20
64817;DHT22;53289;45.602;11.904;2022-08-19T04:54:05;18.90;89.00
64817;DHT22;53289;45.602;11.904;2022-08-19T04:56:31;18.90;88.90
64817;DHT22;53289;45.602;11.904;2022-08-19T04:58:57;18.90;88.70
64817;DHT22;53289;45.602;11.904;2022-08-19T05:01:26;19.00;88.70
64817;DHT22;53289;45.602;11.904;2022-08-19T05:03:54;19.00;88.60
64817;DHT22;53289;45.602;11.904;2022-08-19T05:06:22;19.10;88.60
64817;DHT22;53289;45.602;11.904;2022-08-19T05:08:49;19.10;88.50
64817;DHT22;53289;45.602;11.904;2022-08-19T05:11:22;19.20;88.50
64817;DHT22;53289;45.602;11.904;2022-08-19T05:13:48;19.20;88.50
64817;DHT22;53289;45.602;11.904;2022-08-19T05:16:17;19.20;88.50
64817;DHT22;53289;45.602;11.904;2022-08-19T05:18:43;19.20;88.30
64817;DHT22;53289;45.602;11.904;2022-08-19T05:21:28;19.20;88.30
64817;DHT22;53289;45.602;11.904;2022-08-19T05:24:14;19.20;88.30
64817;DHT22;53289;45.602;11.904;2022-08-19T05:26:42;19.20;88.50
64817;DHT22;53289;45.602;11.904;2022-08-19T05:29:09;19.30;88.40
64817;DHT22;53289;45.602;11.904;2022-08-19T05:31:37;19.40;88.40
64817;DHT22;53289;45.602;11.904;2022-08-19T05:34:05;19.40;88.20
64817;DHT22;53289;45.602;11.904;2022-08-19T05:36:37;19.50;88.10
64817;DHT22;53289;45.602;11.904;2022-08-19T05:39:07;19.70;88.00
64817;DHT22;53289;45.602;11.904;2022-08-19T05:41:34;19.90;87.90
64817;DHT22;53289;45.602;11.904;2022-08-19T05:44:03;20.00;88.20
64817;DHT22;53289;45.602;11.904;2022-08-19T05:46:32;20.20;87.60
64817;DHT22;53289;45.602;11.904;2022-08-19T05:48:58;20.40;87.10
64817;DHT22;53289;45.602;11.904;2022-08-19T05:51:25;20.50;86.70
64817;DHT22;53289;45.602;11.904;2022-08-19T05:53:51;20.60;86.50
64817;DHT22;53289;45.602;11.904;2022-08-19T05:56:18;20.60;86.20
64817;DHT22;53289;45.602;11.904;2022-08-19T05:58:45;20.60;85.60
64817;DHT22;53289;45.602;11.904;2022-08-19T06:01:15;20.60;85.30
64817;DHT22;53289;45.602;11.904;2022-08-19T06:03:42;20.60;85.40
64817;DHT22;53289;45.602;11.904;2022-08-19T06:06:11;20.70;85.00
64817;DHT22;53289;45.602;11.904;2022-08-19T06:08:38;20.70;84.60
64817;DHT22;53289;45.602;11.904;2022-08-19T06:13:50;20.70;83.70
64817;DHT22;53289;45.602;11.904;2022-08-19T06:16:21;20.80;83.90
64817;DHT22;53289;45.602;11.904;2022-08-19T06:19:00;20.80;83.80
64817;DHT22;53289;45.602;11.904;2022-08-19T06:21:28;20.80;83.60
64817;DHT22;53289;45.602;11.904;2022-08-19T06:23:55;20.90;83.70
64817;DHT22;53289;45.602;11.904;2022-08-19T06:26:22;20.90;83.10
64817;DHT22;53289;45.602;11.904;2022-08-19T06:28:50;20.90;83.20
64817;DHT22;53289;45.602;11.904;2022-08-19T06:31:19;21.00;83.10
64817;DHT22;53289;45.602;11.904;2022-08-19T06:33:47;21.00;83.10
64817;DHT22;53289;45.602;11.904;2022-08-19T06:36:21;21.10;83.20
64817;DHT22;53289;45.602;11.904;2022-08-19T06:38:53;21.20;83.20
64817;DHT22;53289;45.602;11.904;2022-08-19T06:41:19;21.30;83.10
64817;DHT22;53289;45.602;11.904;2022-08-19T06:43:46;21.40;82.90
64817;DHT22;53289;45.602;11.904;2022-08-19T06:46:16;21.60;81.20
64817;DHT22;53289;45.602;11.904;2022-08-19T06:48:44;21.80;81.40
64817;DHT22;53289;45.602;11.904;2022-08-19T06:51:10;22.00;79.90
64817;DHT22;53289;45.602;11.904;2022-08-19T06:53:37;22.20;79.80
64817;DHT22;53289;45.602;11.904;2022-08-19T06:56:05;22.40;79.80
64817;DHT22;53289;45.602;11.904;2022-08-19T06:58:31;22.40;79.50
64817;DHT22;53289;45.602;11.904;2022-08-19T07:01:02;22.60;79.60
64817;DHT22;53289;45.602;11.904;2022-08-19T07:03:31;22.60;78.90
64817;DHT22;53289;45.602;11.904;2022-08-19T07:06:03;22.70;78.90
64817;DHT22;53289;45.602;11.904;2022-08-19T07:08:37;22.60;78.00
64817;DHT22;53289;45.602;11.904;2022-08-19T07:11:07;22.60;77.90
64817;DHT22;53289;45.602;11.904;2022-08-19T07:13:36;22.50;78.00
64817;DHT22;53289;45.602;11.904;2022-08-19T07:16:15;22.50;78.30
64817;DHT22;53289;45.602;11.904;2022-08-19T07:18:41;22.50;78.70
64817;DHT22;53289;45.602;11.904;2022-08-19T07:21:10;22.40;79.10
64817;DHT22;53289;45.602;11.904;2022-08-19T07:23:37;22.40;79.40
64817;DHT22;53289;45.602;11.904;2022-08-19T07:26:09;22.20;79.50
64817;DHT22;53289;45.602;11.904;2022-08-19T07:28:35;22.20;79.50
64817;DHT22;53289;45.602;11.904;2022-08-19T07:31:08;22.00;79.60
64817;DHT22;53289;45.602;11.904;2022-08-19T07:33:35;21.90;79.90
64817;DHT22;53289;45.602;11.904;2022-08-19T07:36:07;21.80;80.10
64817;DHT22;53289;45.602;11.904;2022-08-19T07:38:38;21.70;80.30
64817;DHT22;53289;45.602;11.904;2022-08-19T07:41:05;21.60;80.70
64817;DHT22;53289;45.602;11.904;2022-08-19T07:43:32;21.50;80.90
64817;DHT22;53289;45.602;11.904;2022-08-19T07:45:58;21.50;81.20
64817;DHT22;53289;45.602;11.904;2022-08-19T07:48:26;21.40;81.40
64817;DHT22;53289;45.602;11.904;2022-08-19T07:51:01;21.50;81.60
64817;DHT22;53289;45.602;11.904;2022-08-19T07:53:30;21.50;81.60
64817;DHT22;53289;45.602;11.904;2022-08-19T07:55:57;21.40;81.80
64817;DHT22;53289;45.602;11.904;2022-08-19T07:58:35;21.50;82.00
64817;DHT22;53289;45.602;11.904;2022-08-19T08:01:03;21.50;82.00
64817;DHT22;53289;45.602;11.904;2022-08-19T08:03:30;21.50;82.00
64817;DHT22;53289;45.602;11.904;2022-08-19T08:06:15;21.60;82.10
64817;DHT22;53289;45.602;11.904;2022-08-19T08:09:01;21.60;82.10
64817;DHT22;53289;45.602;11.904;2022-08-19T08:11:43;21.60;81.90
64817;DHT22;53289;45.602;11.904;2022-08-19T08:14:22;21.70;82.00
64817;DHT22;53289;45.602;11.904;2022-08-19T08:16:50;21.70;81.80
64817;DHT22;53289;45.602;11.904;2022-08-19T08:19:22;21.70;81.90
64817;DHT22;53289;45.602;11.904;2022-08-19T08:21:49;21.80;82.00
64817;DHT22;53289;45.602;11.904;2022-08-19T08:24:17;21.80;82.00
64817;DHT22;53289;45.602;11.904;2022-08-19T08:26:43;21.80;82.10
64817;DHT22;53289;45.602;11.904;2022-08-19T08:29:10;21.80;82.10
64817;DHT22;53289;45.602;11.904;2022-08-19T08:31:43;21.80;82.20
64817;DHT22;53289;45.602;11.904;2022-08-19T08:34:11;21.80;82.40
64817;DHT22;53289;45.602;11.904;2022-08-19T08:36:40;21.80;82.50
64817;DHT22;53289;45.602;11.904;2022-08-19T08:39:14;21.80;82.60
64817;DHT22;53289;45.602;11.904;2022-08-19T08:44:57;21.80;82.50
64817;DHT22;53289;45.602;11.904;2022-08-19T08:47:25;21.90;82.70
64817;DHT22;53289;45.602;11.904;2022-08-19T08:50:02;22.00;81.30
64817;DHT22;53289;45.602;11.904;2022-08-19T08:52:31;21.90;80.90
64817;DHT22;53289;45.602;11.904;2022-08-19T08:55:07;21.90;79.30
64817;DHT22;53289;45.602;11.904;2022-08-19T09:00:10;21.70;79.70
64817;DHT22;53289;45.602;11.904;2022-08-19T09:02:38;21.70;79.80
64817;DHT22;53289;45.602;11.904;2022-08-19T09:05:04;21.80;79.80
64817;DHT22;53289;45.602;11.904;2022-08-19T09:12:54;21.90;79.80
64817;DHT22;53289;45.602;11.904;2022-08-19T09:15:37;21.90;80.00
64817;DHT22;53289;45.602;11.904;2022-08-19T09:18:05;22.10;80.00
64817;DHT22;53289;45.602;11.904;2022-08-19T09:20:32;22.30;79.60
64817;DHT22;53289;45.602;11.904;2022-08-19T09:22:58;22.50;79.10
64817;DHT22;53289;45.602;11.904;2022-08-19T09:25:25;22.80;78.60
64817;DHT22;53289;45.602;11.904;2022-08-19T09:27:53;23.00;77.80
64817;DHT22;53289;45.602;11.904;2022-08-19T09:30:23;23.20;77.40
64817;DHT22;53289;45.602;11.904;2022-08-19T09:32:51;23.40;76.10
64817;DHT22;53289;45.602;11.904;2022-08-19T09:35:25;23.50;75.90
64817;DHT22;53289;45.602;11.904;2022-08-19T09:37:53;23.70;75.10
64817;DHT22;53289;45.602;11.904;2022-08-19T09:40:19;23.70;74.80
64817;DHT22;53289;45.602;11.904;2022-08-19T09:42:46;23.80;74.50
64817;DHT22;53289;45.602;11.904;2022-08-19T09:45:14;23.90;73.90
64817;DHT22;53289;45.602;11.904;2022-08-19T09:47:42;23.90;73.50
64817;DHT22;53289;45.602;11.904;2022-08-19T09:50:10;23.90;73.50
64817;DHT22;53289;45.602;11.904;2022-08-19T09:52:38;23.90;73.50
64817;DHT22;53289;45.602;11.904;2022-08-19T09:55:06;23.90;73.50
64817;DHT22;53289;45.602;11.904;2022-08-19T09:57:33;24.00;73.10
64817;DHT22;53289;45.602;11.904;2022-08-19T09:59:59;24.00;72.50
64817;DHT22;53289;45.602;11.904;2022-08-19T10:02:25;24.00;72.40
64817;DHT22;53289;45.602;11.904;2022-08-19T10:04:51;24.10;72.20
64817;DHT22;53289;45.602;11.904;2022-08-19T10:07:37;24.00;72.00
64817;DHT22;53289;45.602;11.904;2022-08-19T10:10:06;24.00;71.60
64817;DHT22;53289;45.602;11.904;2022-08-19T10:12:33;23.90;72.10
64817;DHT22;53289;45.602;11.904;2022-08-19T10:15:00;23.90;72.70
64817;DHT22;53289;45.602;11.904;2022-08-19T10:17:27;24.00;72.40
64817;DHT22;53289;45.602;11.904;2022-08-19T10:19:53;24.00;71.80
64817;DHT22;53289;45.602;11.904;2022-08-19T10:22:19;24.10;70.40
64817;DHT22;53289;45.602;11.904;2022-08-19T10:24:48;24.00;70.00
64817;DHT22;53289;45.602;11.904;2022-08-19T10:27:15;24.00;68.20
64817;DHT22;53289;45.602;11.904;2022-08-19T10:29:41;24.00;69.50
64817;DHT22;53289;45.602;11.904;2022-08-19T10:32:08;24.00;68.70
64817;DHT22;53289;45.602;11.904;2022-08-19T10:34:37;24.00;68.70
64817;DHT22;53289;45.602;11.904;2022-08-19T10:37:04;24.10;69.10
64817;DHT22;53289;45.602;11.904;2022-08-19T10:39:34;24.20;69.00
64817;DHT22;53289;45.602;11.904;2022-08-19T10:42:07;24.20;69.10
64817;DHT22;53289;45.602;11.904;2022-08-19T10:44:36;24.40;68.80
64817;DHT22;53289;45.602;11.904;2022-08-19T10:47:03;24.50;68.10
64817;DHT22;53289;45.602;11.904;2022-08-19T10:49:30;24.60;67.80
64817;DHT22;53289;45.602;11.904;2022-08-19T10:51:57;24.70;66.80
64817;DHT22;53289;45.602;11.904;2022-08-19T10:54:42;24.80;66.20
64817;DHT22;53289;45.602;11.904;2022-08-19T10:57:31;24.80;66.10
64817;DHT22;53289;45.602;11.904;2022-08-19T10:59:57;24.90;65.20
64817;DHT22;53289;45.602;11.904;2022-08-19T11:02:23;25.00;65.50
64817;DHT22;53289;45.602;11.904;2022-08-19T11:04:49;25.30;65.80
64817;DHT22;53289;45.602;11.904;2022-08-19T11:07:17;25.60;65.30
64817;DHT22;53289;45.602;11.904;2022-08-19T11:09:43;25.90;63.90
64817;DHT22;53289;45.602;11.904;2022-08-19T11:12:10;26.00;63.10
64817;DHT22;53289;45.602;11.904;2022-08-19T11:14:36;26.10;63.20
64817;DHT22;53289;45.602;11.904;2022-08-19T11:17:04;26.30;62.80
64817;DHT22;53289;45.602;11.904;2022-08-19T11:19:31;26.60;62.70
64817;DHT22;53289;45.602;11.904;2022-08-19T11:21:58;26.90;62.00
64817;DHT22;53289;45.602;11.904;2022-08-19T11:24:27;27.10;61.50
64817;DHT22;53289;45.602;11.904;2022-08-19T11:26:55;27.30;61.50
64817;DHT22;53289;45.602;11.904;2022-08-19T11:29:28;27.40;60.80
64817;DHT22;53289;45.602;11.904;2022-08-19T11:31:55;27.50;60.50
64817;DHT22;53289;45.602;11.904;2022-08-19T11:34:23;27.60;59.70
64817;DHT22;53289;45.602;11.904;2022-08-19T11:36:51;27.60;58.80
64817;DHT22;53289;45.602;11.904;2022-08-19T11:39:20;27.60;58.90
64817;DHT22;53289;45.602;11.904;2022-08-19T11:41:46;27.50;59.40
64817;DHT22;53289;45.602;11.904;2022-08-19T11:44:12;27.40;59.40
64817;DHT22;53289;45.602;11.904;2022-08-19T11:46:41;27.30;59.70
64817;DHT22;53289;45.602;11.904;2022-08-19T11:49:11;27.10;59.70
64817;DHT22;53289;45.602;11.904;2022-08-19T11:51:39;26.90;59.50
64817;DHT22;53289;45.602;11.904;2022-08-19T11:54:06;26.80;60.00
64817;DHT22;53289;45.602;11.904;2022-08-19T11:56:32;26.60;61.00
64817;DHT22;53289;45.602;11.904;2022-08-19T11:59:00;26.50;61.10
64817;DHT22;53289;45.602;11.904;2022-08-19T12:01:26;26.50;61.30
64817;DHT22;53289;45.602;11.904;2022-08-19T12:03:54;26.50;60.20
64817;DHT22;53289;45.602;11.904;2022-08-19T12:06:24;26.60;59.70
64817;DHT22;53289;45.602;11.904;2022-08-19T12:08:51;26.90;59.10
64817;DHT22;53289;45.602;11.904;2022-08-19T12:11:17;27.10;58.90
64817;DHT22;53289;45.602;11.904;2022-08-19T12:13:43;27.40;58.30
64817;DHT22;53289;45.602;11.904;2022-08-19T12:16:16;27.70;57.20
64817;DHT22;53289;45.602;11.904;2022-08-19T12:18:44;28.10;56.90
64817;DHT22;53289;45.602;11.904;2022-08-19T12:21:18;28.50;56.30
64817;DHT22;53289;45.602;11.904;2022-08-19T12:23:48;28.80;55.40
64817;DHT22;53289;45.602;11.904;2022-08-19T12:26:15;29.00;55.10
64817;DHT22;53289;45.602;11.904;2022-08-19T12:28:41;29.00;54.90
64817;DHT22;53289;45.602;11.904;2022-08-19T12:31:07;28.80;55.10
64817;DHT22;53289;45.602;11.904;2022-08-19T12:33:34;28.60;55.80
64817;DHT22;53289;45.602;11.904;2022-08-19T12:36:03;28.40;56.30
64817;DHT22;53289;45.602;11.904;2022-08-19T12:38:32;28.30;56.50
64817;DHT22;53289;45.602;11.904;2022-08-19T12:40:58;28.30;56.90
64817;DHT22;53289;45.602;11.904;2022-08-19T12:43:24;28.40;56.50
64817;DHT22;53289;45.602;11.904;2022-08-19T12:45:50;28.50;56.70
64817;DHT22;53289;45.602;11.904;2022-08-19T12:48:16;28.80;56.50
64817;DHT22;53289;45.602;11.904;2022-08-19T12:50:44;29.20;55.30
64817;DHT22;53289;45.602;11.904;2022-08-19T12:53:12;29.70;54.10
64817;DHT22;53289;45.602;11.904;2022-08-19T12:55:38;30.00;52.60
64817;DHT22;53289;45.602;11.904;2022-08-19T12:58:04;30.20;52.40
64817;DHT22;53289;45.602;11.904;2022-08-19T13:00:30;30.30;50.90
64817;DHT22;53289;45.602;11.904;2022-08-19T13:02:59;30.20;50.80
64817;DHT22;53289;45.602;11.904;2022-08-19T13:05:30;30.20;51.00
64817;DHT22;53289;45.602;11.904;2022-08-19T13:07:58;30.30;50.30
64817;DHT22;53289;45.602;11.904;2022-08-19T13:10:32;30.30;51.10
64817;DHT22;53289;45.602;11.904;2022-08-19T13:13:02;30.30;51.30
64817;DHT22;53289;45.602;11.904;2022-08-19T13:15:29;30.20;50.70
64817;DHT22;53289;45.602;11.904;2022-08-19T13:17:58;29.90;50.40
64817;DHT22;53289;45.602;11.904;2022-08-19T13:20:24;29.50;51.30
64817;DHT22;53289;45.602;11.904;2022-08-19T13:22:50;29.40;52.10
64817;DHT22;53289;45.602;11.904;2022-08-19T13:25:17;29.20;52.80
64817;DHT22;53289;45.602;11.904;2022-08-19T13:27:46;29.10;52.60
64817;DHT22;53289;45.602;11.904;2022-08-19T13:30:14;28.90;52.80
64817;DHT22;53289;45.602;11.904;2022-08-19T13:32:59;28.70;53.20
64817;DHT22;53289;45.602;11.904;2022-08-19T13:35:38;28.50;53.80
64817;DHT22;53289;45.602;11.904;2022-08-19T13:38:05;28.40;53.70
64817;DHT22;53289;45.602;11.904;2022-08-19T13:40:31;28.10;54.10
64817;DHT22;53289;45.602;11.904;2022-08-19T13:42:59;28.00;54.60
64817;DHT22;53289;45.602;11.904;2022-08-19T13:45:28;28.10;54.80
64817;DHT22;53289;45.602;11.904;2022-08-19T13:47:56;28.20;54.50
64817;DHT22;53289;45.602;11.904;2022-08-19T13:50:26;28.30;54.50
64817;DHT22;53289;45.602;11.904;2022-08-19T13:52:53;28.50;54.30
64817;DHT22;53289;45.602;11.904;2022-08-19T13:55:21;28.70;54.40
64817;DHT22;53289;45.602;11.904;2022-08-19T13:57:52;29.00;54.30
64817;DHT22;53289;45.602;11.904;2022-08-19T14:00:20;29.30;53.20
64817;DHT22;53289;45.602;11.904;2022-08-19T14:02:49;29.50;53.60
64817;DHT22;53289;45.602;11.904;2022-08-19T14:05:18;29.60;54.10
64817;DHT22;53289;45.602;11.904;2022-08-19T14:07:45;29.90;54.70
64817;DHT22;53289;45.602;11.904;2022-08-19T14:10:12;30.00;53.10
64817;DHT22;53289;45.602;11.904;2022-08-19T14:12:39;30.20;53.60
64817;DHT22;53289;45.602;11.904;2022-08-19T14:15:08;30.30;52.90
64817;DHT22;53289;45.602;11.904;2022-08-19T14:17:36;30.30;52.50
64817;DHT22;53289;45.602;11.904;2022-08-19T14:20:05;30.30;52.40
64817;DHT22;53289;45.602;11.904;2022-08-19T14:22:40;30.40;52.60
64817;DHT22;53289;45.602;11.904;2022-08-19T14:25:09;30.40;51.80
64817;DHT22;53289;45.602;11.904;2022-08-19T14:27:37;30.40;50.80
64817;DHT22;53289;45.602;11.904;2022-08-19T14:30:09;30.50;51.20
64817;DHT22;53289;45.602;11.904;2022-08-19T14:32:35;30.50;50.20
64817;DHT22;53289;45.602;11.904;2022-08-19T14:35:02;30.50;50.50
64817;DHT22;53289;45.602;11.904;2022-08-19T14:37:29;30.20;50.30
64817;DHT22;53289;45.602;11.904;2022-08-19T14:39:55;30.00;51.20
64817;DHT22;53289;45.602;11.904;2022-08-19T14:42:21;29.90;51.80
64817;DHT22;53289;45.602;11.904;2022-08-19T14:44:47;29.90;51.90
64817;DHT22;53289;45.602;11.904;2022-08-19T14:47:13;29.70;52.70
64817;DHT22;53289;45.602;11.904;2022-08-19T14:49:39;29.50;53.50
64817;DHT22;53289;45.602;11.904;2022-08-19T14:52:05;29.40;53.40
64817;DHT22;53289;45.602;11.904;2022-08-19T14:54:31;29.30;54.30
64817;DHT22;53289;45.602;11.904;2022-08-19T14:56:58;29.20;54.80
64817;DHT22;53289;45.602;11.904;2022-08-19T14:59:24;29.00;55.10
64817;DHT22;53289;45.602;11.904;2022-08-19T15:01:50;28.80;55.70
64817;DHT22;53289;45.602;11.904;2022-08-19T15:04:16;28.70;56.50
64817;DHT22;53289;45.602;11.904;2022-08-19T15:06:42;28.80;56.20
64817;DHT22;53289;45.602;11.904;2022-08-19T15:09:11;28.90;55.90
64817;DHT22;53289;45.602;11.904;2022-08-19T15:11:37;28.90;55.70
64817;DHT22;53289;45.602;11.904;2022-08-19T15:14:04;29.10;55.40
64817;DHT22;53289;45.602;11.904;2022-08-19T15:16:34;29.20;54.30
64817;DHT22;53289;45.602;11.904;2022-08-19T15:19:01;29.20;53.70
64817;DHT22;53289;45.602;11.904;2022-08-19T15:21:29;29.20;54.20
64817;DHT22;53289;45.602;11.904;2022-08-19T15:23:57;29.10;54.70
64817;DHT22;53289;45.602;11.904;2022-08-19T15:26:24;29.10;54.40
64817;DHT22;53289;45.602;11.904;2022-08-19T15:28:57;29.20;54.20
64817;DHT22;53289;45.602;11.904;2022-08-19T15:31:23;29.40;54.20
64817;DHT22;53289;45.602;11.904;2022-08-19T15:33:49;29.50;53.70
64817;DHT22;53289;45.602;11.904;2022-08-19T15:36:15;29.40;54.10
64817;DHT22;53289;45.602;11.904;2022-08-19T15:38:41;29.00;54.40
64817;DHT22;53289;45.602;11.904;2022-08-19T15:41:21;28.80;54.70